Beebe, Arkansas
Current Conditions -  °F | °C
As of 10:56 PM on Friday 19 Dec 2014 (Local Time) from KSRC Reporting Station
Overcast Overcast  
Wind Chill: 35°   Ceiling: 6000
Heat Index: 40°   Visibility: 10mi
Dew Point: 36°   Wind: 7mph
Humidity: 86%   Direction: 30°NNE
Pressure: 30.26"   Gusts: NA
Location:  35.07°N, 91.88°W
Report Text: KSRC 200456Z AUTO 03006KT 10SM OVC060 04/02 A3026 RMK AO2 SLP255 T00440022 400560039 TSNO
Loading
Personal Weather Stations






























Interactive Weather Map New forecast layout! Learn more

10-Day Weather Forecast

Advertisements
Track Severe Weather on mobile